createdAt,value
2022-08-03T00:00:24.092Z,0.30
2022-08-03T00:02:50.578Z,0.40
2022-08-03T00:05:17.103Z,0.30
2022-08-03T00:07:43.609Z,0.40
2022-08-03T00:10:13.633Z,0.30
2022-08-03T00:12:40.193Z,0.40
2022-08-03T00:15:10.411Z,0.43
2022-08-03T00:17:53.636Z,0.30
2022-08-03T00:20:22.150Z,0.43
2022-08-03T00:22:49.329Z,0.35
2022-08-03T00:25:16.414Z,0.30
2022-08-03T00:27:42.875Z,0.40
2022-08-03T00:30:09.717Z,0.30
2022-08-03T00:32:36.211Z,0.40
2022-08-03T00:35:09.794Z,0.30
2022-08-03T00:37:41.458Z,0.43
2022-08-03T00:40:11.814Z,0.60
2022-08-03T00:42:54.403Z,0.38
2022-08-03T00:45:24.039Z,0.40
2022-08-03T00:47:50.725Z,0.38
2022-08-03T00:50:18.426Z,0.50
2022-08-03T00:52:45.753Z,0.40
2022-08-03T00:55:12.745Z,0.57
2022-08-03T00:57:39.498Z,0.70
2022-08-03T01:00:08.131Z,1.00
2022-08-03T01:02:34.984Z,0.60
2022-08-03T01:05:01.604Z,0.30
2022-08-03T01:07:36.031Z,0.50
2022-08-03T01:10:17.178Z,0.50
2022-08-03T01:12:52.691Z,0.35
2022-08-03T01:15:42.539Z,0.40
2022-08-03T01:18:18.249Z,0.40
2022-08-03T01:20:48.710Z,0.40
2022-08-03T01:23:35.037Z,0.45
2022-08-03T01:26:13.282Z,0.60
2022-08-03T01:28:59.397Z,0.50
2022-08-03T01:32:58.206Z,0.50
2022-08-03T01:34:32.681Z,0.32
2022-08-03T01:37:03.022Z,0.50
2022-08-03T01:39:32.967Z,0.50
2022-08-03T01:42:06.147Z,0.40
2022-08-03T01:44:36.961Z,0.40
2022-08-03T01:47:06.349Z,0.50
2022-08-03T01:49:37.365Z,1.20
2022-08-03T01:52:05.683Z,0.60
2022-08-03T01:54:37.732Z,0.60
2022-08-03T01:57:04.965Z,0.40
2022-08-03T01:59:35.798Z,0.47
2022-08-03T02:02:15.355Z,0.50
2022-08-03T02:04:54.071Z,0.63
2022-08-03T02:07:20.906Z,0.53
2022-08-03T02:09:51.554Z,0.60
2022-08-03T02:12:19.290Z,0.40
2022-08-03T02:14:48.715Z,0.50
2022-08-03T02:17:16.225Z,0.50
2022-08-03T02:19:44.419Z,0.50
2022-08-03T02:22:13.209Z,0.90
2022-08-03T02:24:40.260Z,0.60
2022-08-03T02:27:21.133Z,0.60
2022-08-03T02:29:53.038Z,0.70
2022-08-03T02:32:25.210Z,0.50
2022-08-03T02:34:53.336Z,0.52
2022-08-03T02:37:22.298Z,0.68
2022-08-03T02:39:53.298Z,0.70
2022-08-03T02:42:23.270Z,0.63
2022-08-03T02:44:51.343Z,0.70
2022-08-03T02:47:21.345Z,0.75
2022-08-03T02:49:52.091Z,0.60
2022-08-03T02:52:23.299Z,0.80
2022-08-03T02:54:53.863Z,0.80
2022-08-03T02:57:21.905Z,1.00
2022-08-03T02:59:49.606Z,0.52
2022-08-03T03:02:18.395Z,0.70
2022-08-03T03:05:53.052Z,0.95
2022-08-03T03:07:45.431Z,0.60
2022-08-03T03:10:21.396Z,0.83
2022-08-03T03:12:50.133Z,0.50
2022-08-03T03:15:16.790Z,0.80
2022-08-03T03:17:44.114Z,0.55
2022-08-03T03:20:11.937Z,0.57
2022-08-03T03:22:38.984Z,1.00
2022-08-03T03:25:07.376Z,0.57
2022-08-03T03:27:34.360Z,0.63
2022-08-03T03:30:01.707Z,0.60
2022-08-03T03:32:29.247Z,0.93
2022-08-03T03:34:57.040Z,1.37
2022-08-03T03:37:23.503Z,0.93
2022-08-03T03:39:49.984Z,0.75
2022-08-03T03:42:16.941Z,0.93
2022-08-03T03:44:43.663Z,0.80
2022-08-03T03:47:10.228Z,1.17
2022-08-03T03:49:37.792Z,0.90
2022-08-03T03:52:04.594Z,0.52
2022-08-03T03:54:42.221Z,0.82
2022-08-03T03:57:10.417Z,0.88
2022-08-03T03:59:41.860Z,0.60
2022-08-03T04:02:09.985Z,0.82
2022-08-03T04:04:56.042Z,1.40
2022-08-03T04:07:43.247Z,0.88
2022-08-03T04:10:31.789Z,0.68
2022-08-03T04:13:00.629Z,1.00
2022-08-03T04:15:29.104Z,0.80
2022-08-03T04:17:58.893Z,0.80
2022-08-03T04:20:29.968Z,0.82
2022-08-03T04:23:00.160Z,0.88
2022-08-03T04:25:31.097Z,1.03
2022-08-03T04:28:20.930Z,0.75
2022-08-03T04:30:50.735Z,0.98
2022-08-03T04:33:19.468Z,1.38
2022-08-03T04:36:01.307Z,0.85
2022-08-03T04:38:32.861Z,0.93
2022-08-03T04:41:01.031Z,0.90
2022-08-03T04:43:28.635Z,0.70
2022-08-03T04:45:56.886Z,1.00
2022-08-03T04:48:23.861Z,0.80
2022-08-03T04:50:50.617Z,0.93
2022-08-03T04:53:18.203Z,1.42
2022-08-03T04:55:46.645Z,1.02
2022-08-03T04:58:13.173Z,1.13
2022-08-03T05:00:39.636Z,1.08
2022-08-03T05:03:20.505Z,1.20
2022-08-03T05:05:53.066Z,1.20
2022-08-03T05:08:29.365Z,1.13
2022-08-03T05:10:58.881Z,1.27
2022-08-03T05:13:26.080Z,1.30
2022-08-03T05:15:52.733Z,1.10
2022-08-03T05:18:19.355Z,1.17
2022-08-03T05:20:45.892Z,0.90
2022-08-03T05:23:12.487Z,0.95
2022-08-03T05:25:39.327Z,1.38
2022-08-03T05:28:05.985Z,1.33
2022-08-03T05:30:33.882Z,1.30
2022-08-03T05:33:02.167Z,1.20
2022-08-03T05:36:01.011Z,1.38
2022-08-03T05:38:23.966Z,1.10
2022-08-03T05:40:57.477Z,0.93
2022-08-03T05:43:41.493Z,0.90
2022-08-03T05:46:12.867Z,1.25
2022-08-03T05:48:39.924Z,1.70
2022-08-03T05:51:07.694Z,1.73
2022-08-03T05:53:34.559Z,1.43
2022-08-03T05:56:13.746Z,1.42
2022-08-03T05:58:42.112Z,1.15
2022-08-03T06:01:08.780Z,1.65
2022-08-03T06:03:35.333Z,1.20
2022-08-03T06:06:01.872Z,1.40
2022-08-03T06:08:28.418Z,1.77
2022-08-03T06:10:54.952Z,1.30
2022-08-03T06:13:22.004Z,1.20
2022-08-03T06:15:48.526Z,1.20
2022-08-03T06:18:15.999Z,1.30
2022-08-03T06:20:42.456Z,1.30
2022-08-03T06:23:16.232Z,1.50
2022-08-03T06:25:44.946Z,1.70
2022-08-03T06:28:35.341Z,1.67
2022-08-03T06:30:58.919Z,1.60
2022-08-03T06:33:26.488Z,1.75
2022-08-03T06:36:12.965Z,1.23
2022-08-03T06:38:39.615Z,1.42
2022-08-03T06:41:06.103Z,1.00
2022-08-03T06:43:35.874Z,1.73
2022-08-03T06:46:02.703Z,1.92
2022-08-03T06:48:29.145Z,1.40
2022-08-03T06:53:59.174Z,1.30
2022-08-03T06:57:06.480Z,1.70
2022-08-03T07:07:28.466Z,0.90
2022-08-03T07:09:28.561Z,1.50
2022-08-03T07:22:30.011Z,0.98
2022-08-03T07:28:08.325Z,1.20
2022-08-03T07:29:38.158Z,1.50
2022-08-03T07:30:35.731Z,1.20
2022-08-03T07:33:02.333Z,1.40
2022-08-03T07:35:28.860Z,2.03
2022-08-03T07:37:55.475Z,1.58
2022-08-03T07:40:22.493Z,1.30
2022-08-03T07:42:49.310Z,1.27
2022-08-03T07:45:21.466Z,1.27
2022-08-03T07:47:53.478Z,1.20
2022-08-03T07:53:07.083Z,1.37
2022-08-03T07:58:20.614Z,1.58
2022-08-03T08:01:19.431Z,1.33
2022-08-03T08:03:53.198Z,1.63
2022-08-03T08:06:21.031Z,1.03
2022-08-03T08:08:47.692Z,1.02
2022-08-03T08:13:54.988Z,1.55
2022-08-03T08:16:21.540Z,1.52
2022-08-03T08:18:50.873Z,1.10
2022-08-03T08:27:24.105Z,2.05
2022-08-03T08:29:54.609Z,1.02
2022-08-03T08:32:28.034Z,1.60
2022-08-03T08:34:55.945Z,1.40
2022-08-03T08:37:22.458Z,1.00
2022-08-03T08:40:08.500Z,1.25
2022-08-03T08:42:40.260Z,1.17
2022-08-03T08:45:11.265Z,1.10
2022-08-03T08:48:08.381Z,1.63
2022-08-03T08:54:18.849Z,1.70
2022-08-03T08:59:48.747Z,1.20
2022-08-03T09:02:20.612Z,1.52
2022-08-03T09:05:13.356Z,1.50
2022-08-03T09:07:41.322Z,1.92
2022-08-03T09:13:14.603Z,1.47
2022-08-03T09:16:49.446Z,1.38
2022-08-03T09:19:14.219Z,1.50
2022-08-03T09:21:40.900Z,2.10
2022-08-03T09:24:16.449Z,1.42
2022-08-03T09:26:51.892Z,1.57
2022-08-03T09:29:52.424Z,1.83
2022-08-03T09:32:40.827Z,2.50
2022-08-03T09:35:51.490Z,1.30
2022-08-03T09:38:17.220Z,1.50
2022-08-03T09:40:45.172Z,0.97
2022-08-03T09:43:12.212Z,2.13
2022-08-03T09:45:40.002Z,1.48
2022-08-03T09:48:28.163Z,1.45
2022-08-03T09:51:13.498Z,1.77
2022-08-03T09:53:57.047Z,1.40
2022-08-03T09:57:32.217Z,1.60
2022-08-03T10:00:15.310Z,0.98
2022-08-03T10:02:46.805Z,1.45
2022-08-03T10:08:17.937Z,1.00
2022-08-03T10:16:41.688Z,1.55
2022-08-03T10:21:56.304Z,1.00
2022-08-03T10:24:31.541Z,1.20
2022-08-03T10:27:21.767Z,1.20
2022-08-03T10:30:10.329Z,0.95
2022-08-03T10:32:48.720Z,1.08
2022-08-03T10:35:20.216Z,1.00
2022-08-03T10:41:12.736Z,1.25
2022-08-03T10:43:50.503Z,1.00
2022-08-03T10:46:19.599Z,1.00
2022-08-03T10:48:47.866Z,0.93
2022-08-03T10:51:14.897Z,1.38
2022-08-03T10:53:54.358Z,1.70
2022-08-03T10:57:03.445Z,1.08
2022-08-03T10:59:46.053Z,0.80
2022-08-03T11:02:14.253Z,1.17
2022-08-03T11:04:41.547Z,0.77
2022-08-03T11:07:17.612Z,1.35
2022-08-03T11:09:48.573Z,1.10
2022-08-03T11:12:28.282Z,0.70
2022-08-03T11:15:02.529Z,1.00
2022-08-03T11:17:29.191Z,1.20
2022-08-03T11:19:57.063Z,1.08
2022-08-03T11:22:25.400Z,1.10
2022-08-03T11:24:54.032Z,1.63
2022-08-03T11:27:23.459Z,0.80
2022-08-03T11:29:58.475Z,0.90
2022-08-03T11:32:38.279Z,1.00
2022-08-03T11:35:28.927Z,0.85
2022-08-03T11:38:04.610Z,0.90
2022-08-03T11:40:39.970Z,1.00
2022-08-03T11:43:08.626Z,1.30
2022-08-03T11:45:36.467Z,1.35
2022-08-03T11:48:16.031Z,0.80
2022-08-03T11:50:45.315Z,1.08
2022-08-03T11:53:16.158Z,1.00
2022-08-03T11:55:46.799Z,1.48
2022-08-03T11:59:18.962Z,1.27
2022-08-03T12:01:06.434Z,0.93
2022-08-03T12:03:34.824Z,1.23
2022-08-03T12:06:02.373Z,1.43
2022-08-03T12:08:32.843Z,1.40
2022-08-03T12:11:02.517Z,1.00
2022-08-03T12:14:36.651Z,0.85
2022-08-03T12:16:28.727Z,1.20
2022-08-03T12:19:01.675Z,0.80
2022-08-03T12:21:29.205Z,1.00
2022-08-03T12:24:01.532Z,1.50
2022-08-03T12:26:30.093Z,1.08
2022-08-03T12:28:56.968Z,1.17
2022-08-03T12:31:23.495Z,1.37
2022-08-03T12:34:03.262Z,0.88
2022-08-03T12:36:33.130Z,1.40
2022-08-03T12:39:01.791Z,1.30
2022-08-03T12:41:30.872Z,1.08
2022-08-03T12:43:58.126Z,1.30
2022-08-03T12:46:31.330Z,1.05
2022-08-03T12:49:03.785Z,1.20
2022-08-03T12:51:33.821Z,1.63
2022-08-03T12:54:01.270Z,1.20
2022-08-03T12:56:27.795Z,1.17
2022-08-03T12:58:54.331Z,1.55
2022-08-03T13:01:24.416Z,1.27
2022-08-03T13:03:54.626Z,1.20
2022-08-03T13:06:25.487Z,1.30
2022-08-03T13:09:08.096Z,1.73
2022-08-03T13:12:01.764Z,1.30
2022-08-03T13:14:21.455Z,1.40
2022-08-03T13:16:49.346Z,1.33
2022-08-03T13:19:16.183Z,1.70
2022-08-03T13:22:02.196Z,1.30
2022-08-03T13:24:30.523Z,1.50
2022-08-03T13:26:58.199Z,1.42
2022-08-03T13:29:24.719Z,1.63
2022-08-03T13:31:51.579Z,2.22
2022-08-03T13:34:22.993Z,2.07
2022-08-03T13:37:08.417Z,2.33
2022-08-03T13:39:57.205Z,1.98
2022-08-03T13:42:22.295Z,1.95
2022-08-03T13:44:48.805Z,2.03
2022-08-03T13:47:15.380Z,1.90
2022-08-03T13:49:42.079Z,2.20
2022-08-03T13:52:21.350Z,1.85
2022-08-03T13:54:47.908Z,1.45
2022-08-03T13:58:05.705Z,1.50
2022-08-03T14:00:04.689Z,1.90
2022-08-03T14:05:26.741Z,1.92
2022-08-03T14:07:53.370Z,2.03
2022-08-03T14:10:29.617Z,1.63
2022-08-03T14:12:56.956Z,1.57
2022-08-03T14:15:23.636Z,1.60
2022-08-03T14:17:50.346Z,1.95
2022-08-03T14:20:37.813Z,1.63
2022-08-03T14:23:03.501Z,1.48
2022-08-03T14:25:31.292Z,2.00
2022-08-03T14:28:10.167Z,1.42
2022-08-03T14:30:36.717Z,1.40
2022-08-03T14:33:03.663Z,1.30
2022-08-03T14:35:30.198Z,1.08
2022-08-03T14:37:56.639Z,1.40
2022-08-03T14:40:23.130Z,1.35
2022-08-03T14:42:49.640Z,1.17
2022-08-03T14:45:20.274Z,1.40
2022-08-03T14:50:34.227Z,1.30
2022-08-03T14:50:42.047Z,1.30
2022-08-03T14:53:10.851Z,1.40
2022-08-03T14:55:38.979Z,1.60
2022-08-03T14:58:19.539Z,1.60
2022-08-03T15:00:47.340Z,1.42
2022-08-03T15:03:16.801Z,1.47
2022-08-03T15:05:44.109Z,1.42
2022-08-03T15:08:31.258Z,1.48
2022-08-03T15:13:42.096Z,1.40
2022-08-03T15:13:51.162Z,1.50
2022-08-03T15:16:17.812Z,1.30
2022-08-03T15:18:44.412Z,1.50
2022-08-03T15:21:20.790Z,1.33
2022-08-03T15:23:57.509Z,1.25
2022-08-03T15:26:31.814Z,1.45
2022-08-03T15:29:00.764Z,1.07
2022-08-03T15:31:27.736Z,1.40
2022-08-03T15:34:34.881Z,1.45
2022-08-03T15:37:01.684Z,1.30
2022-08-03T15:39:28.429Z,1.35
2022-08-03T15:42:42.029Z,1.30
2022-08-03T15:49:12.941Z,1.23
2022-08-03T15:51:48.538Z,1.10
2022-08-03T15:54:50.654Z,1.40
2022-08-03T15:57:17.283Z,1.17
2022-08-03T15:59:43.705Z,1.00
2022-08-03T16:02:12.512Z,1.13
2022-08-03T16:04:38.989Z,1.10
2022-08-03T16:07:05.569Z,1.20
2022-08-03T16:09:42.785Z,1.08
2022-08-03T16:12:14.461Z,1.00
2022-08-03T16:14:51.786Z,0.90
2022-08-03T16:17:20.155Z,1.70
2022-08-03T16:19:46.900Z,1.10
2022-08-03T16:22:14.454Z,1.20
2022-08-03T16:24:42.465Z,1.10
2022-08-03T16:27:17.460Z,1.00
2022-08-03T16:29:55.729Z,1.10
2022-08-03T16:32:22.366Z,0.95
2022-08-03T16:34:50.181Z,1.40
2022-08-03T16:37:37.734Z,1.45
2022-08-03T16:40:05.459Z,0.90
2022-08-03T16:42:34.314Z,1.20
2022-08-03T16:45:01.031Z,0.82
2022-08-03T16:47:27.548Z,1.10
2022-08-03T16:49:56.441Z,0.85
2022-08-03T16:52:24.320Z,1.00
2022-08-03T16:54:53.251Z,1.13
2022-08-03T16:57:55.763Z,1.20
2022-08-03T17:00:10.847Z,1.23
2022-08-03T17:02:38.037Z,1.08
2022-08-03T17:05:04.995Z,1.63
2022-08-03T17:07:31.470Z,1.20
2022-08-03T17:09:58.540Z,0.90
2022-08-03T17:12:27.003Z,1.17
2022-08-03T17:14:54.452Z,2.33
2022-08-03T17:17:30.404Z,1.50
2022-08-03T17:20:15.851Z,0.90
2022-08-03T17:22:54.090Z,1.20
2022-08-03T17:25:39.815Z,1.42
2022-08-03T17:28:50.947Z,1.40
2022-08-03T17:31:23.459Z,1.00
2022-08-03T17:33:58.002Z,0.97
2022-08-03T17:36:41.804Z,1.40
2022-08-03T17:39:16.691Z,1.00
2022-08-03T17:41:49.834Z,1.02
2022-08-03T17:44:31.985Z,1.20
2022-08-03T17:47:05.060Z,1.00
2022-08-03T17:49:39.874Z,1.15
2022-08-03T17:52:19.842Z,1.20
2022-08-03T17:55:55.378Z,1.15
2022-08-03T17:58:03.209Z,1.10
2022-08-03T18:00:51.579Z,1.17
2022-08-03T18:03:58.254Z,1.27
2022-08-03T18:06:30.555Z,1.25
2022-08-03T18:09:04.827Z,1.10
2022-08-03T18:11:50.744Z,0.95
2022-08-03T18:14:32.937Z,0.80
2022-08-03T18:17:06.565Z,0.93
2022-08-03T18:20:03.283Z,1.08
2022-08-03T18:22:26.874Z,1.20
2022-08-03T18:24:55.721Z,1.30
2022-08-03T18:27:23.381Z,1.20
2022-08-03T18:30:12.222Z,1.00
2022-08-03T18:32:38.961Z,1.17
2022-08-03T18:35:06.529Z,0.82
2022-08-03T18:37:51.695Z,1.00
2022-08-03T18:40:20.630Z,0.90
2022-08-03T18:45:57.601Z,1.20
2022-08-03T18:48:34.122Z,0.77
2022-08-03T18:51:06.944Z,0.85
2022-08-03T18:54:03.288Z,2.13
2022-08-03T18:56:42.679Z,0.80
2022-08-03T18:59:30.057Z,0.90
2022-08-03T19:02:06.295Z,0.80
2022-08-03T19:04:52.948Z,0.95
2022-08-03T19:07:25.718Z,0.70
2022-08-03T19:09:58.231Z,0.85
2022-08-03T19:12:39.567Z,1.08
2022-08-03T19:17:57.437Z,0.85
2022-08-03T19:20:28.471Z,0.90
2022-08-03T19:22:57.317Z,0.95
2022-08-03T19:25:35.011Z,0.80
2022-08-03T19:28:04.068Z,0.60
2022-08-03T19:30:38.547Z,1.15
2022-08-03T19:33:09.282Z,0.80
2022-08-03T19:35:51.370Z,0.63
2022-08-03T19:38:28.256Z,0.65
2022-08-03T19:41:00.658Z,0.60
2022-08-03T19:43:53.958Z,0.70
2022-08-03T19:46:30.369Z,0.60
2022-08-03T19:49:10.702Z,0.80
2022-08-03T19:52:01.057Z,0.93
2022-08-03T19:54:45.424Z,0.70
2022-08-03T19:57:18.836Z,1.00
2022-08-03T19:59:50.172Z,0.70
2022-08-03T20:05:15.524Z,0.70
2022-08-03T20:07:47.610Z,0.90
2022-08-03T20:10:16.749Z,0.68
2022-08-03T20:12:44.769Z,0.90
2022-08-03T20:15:11.949Z,0.70
2022-08-03T20:17:55.343Z,0.82
2022-08-03T20:20:28.433Z,0.68
2022-08-03T20:22:58.044Z,0.75
2022-08-03T20:25:38.264Z,0.97
2022-08-03T20:28:13.810Z,0.60
2022-08-03T20:30:43.854Z,1.00
2022-08-03T20:33:10.610Z,0.70
2022-08-03T20:35:37.268Z,1.00
2022-08-03T20:38:03.795Z,0.70
2022-08-03T20:40:30.242Z,0.80
2022-08-03T20:42:56.869Z,0.70
2022-08-03T20:45:59.605Z,0.90
2022-08-03T20:48:10.891Z,0.80
2022-08-03T20:50:38.839Z,1.10
2022-08-03T20:53:07.897Z,1.08
2022-08-03T20:55:53.846Z,1.10
2022-08-03T20:58:25.562Z,0.75
2022-08-03T21:00:56.325Z,0.70
2022-08-03T21:03:22.775Z,0.80
2022-08-03T21:05:53.660Z,1.00
2022-08-03T21:08:23.866Z,0.80
2022-08-03T21:10:52.758Z,0.90
2022-08-03T21:12:58.871Z,0.90
2022-08-03T21:13:03.417Z,0.60
2022-08-03T21:13:10.710Z,1.00
2022-08-03T21:13:42.279Z,0.80
2022-08-03T21:16:15.007Z,1.83
2022-08-03T21:18:46.322Z,0.82
2022-08-03T21:21:16.057Z,0.80
2022-08-03T21:23:48.704Z,0.70
2022-08-03T21:26:17.155Z,1.05
2022-08-03T21:28:45.971Z,0.90
2022-08-03T21:31:14.260Z,0.98
2022-08-03T21:33:54.472Z,0.90
2022-08-03T21:36:20.954Z,1.10
2022-08-03T21:38:55.715Z,1.00
2022-08-03T21:41:23.107Z,0.83
2022-08-03T21:43:49.531Z,1.15
2022-08-03T21:46:18.960Z,1.33
2022-08-03T21:48:47.752Z,1.00
2022-08-03T21:51:18.393Z,0.90
2022-08-03T21:54:02.394Z,0.77
2022-08-03T21:56:36.861Z,1.00
2022-08-03T21:59:07.007Z,0.93
2022-08-03T22:01:35.806Z,1.02
2022-08-03T22:04:06.809Z,0.82
2022-08-03T22:06:33.725Z,1.13
2022-08-03T22:09:00.970Z,1.55
2022-08-03T22:11:27.700Z,1.17
2022-08-03T22:13:54.486Z,0.80
2022-08-03T22:16:21.540Z,1.42
2022-08-03T22:18:48.061Z,2.03
2022-08-03T22:21:16.094Z,1.00
2022-08-03T22:23:55.864Z,1.02
2022-08-03T22:26:34.826Z,0.90
2022-08-03T22:29:06.825Z,1.25
2022-08-03T22:31:58.554Z,0.97
2022-08-03T22:34:26.674Z,0.90
2022-08-03T22:36:57.229Z,1.45
2022-08-03T22:39:28.123Z,1.00
2022-08-03T22:41:56.874Z,1.00
2022-08-03T22:44:24.467Z,1.00
2022-08-03T22:46:51.062Z,1.42
2022-08-03T22:49:18.369Z,1.10
2022-08-03T22:51:46.251Z,0.93
2022-08-03T22:54:12.731Z,0.77
2022-08-03T22:56:39.306Z,1.27
2022-08-03T22:59:39.829Z,0.93
2022-08-03T23:02:00.478Z,1.42
2022-08-03T23:04:31.681Z,1.23
2022-08-03T23:07:03.441Z,1.30
2022-08-03T23:09:31.037Z,1.00
2022-08-03T23:12:00.903Z,1.02
2022-08-03T23:14:30.290Z,0.85
2022-08-03T23:17:03.215Z,1.08
2022-08-03T23:19:30.626Z,1.17
2022-08-03T23:22:03.979Z,1.20
2022-08-03T23:24:36.674Z,1.40
2022-08-03T23:27:05.074Z,1.35
2022-08-03T23:29:36.470Z,1.15
2022-08-03T23:32:04.586Z,1.27
2022-08-03T23:34:50.637Z,1.33
2022-08-03T23:37:18.389Z,1.27
2022-08-03T23:39:47.052Z,1.20
2022-08-03T23:42:16.713Z,1.40
2022-08-03T23:44:45.587Z,1.40
2022-08-03T23:47:13.297Z,1.30
2022-08-03T23:49:39.821Z,1.55
2022-08-03T23:52:28.394Z,1.30
2022-08-03T23:55:03.992Z,1.40
2022-08-03T23:57:57.901Z,1.30
